logo meteosardegna

Diretta Meteo Perugia, Italiavenerdì 12 agosto ore 05:20

Mappa
Sereno 18 °C Sereno 24 Ore: T.min 18 T.max 31
Ponente Nord Km/h 18.5 Punto di rugiada: 12 °C Umidità: 67% Visibilità: 10 Km
Il sole sorge alle: 06:11 Il sole tramonta alle: 20:19
12 Agosto 2022 05:20 tempo osservato: Sereno Sereno 18 67 1014 vento: Nord N 18.5
12 Agosto 2022 04:50 tempo osservato: Sereno Sereno 18 67 1014 vento: Nord N 16.7
12 Agosto 2022 04:20 tempo osservato: Sereno Sereno 18 63 1014 vento: Nord N 18.5
12 Agosto 2022 03:50 tempo osservato: Sereno Sereno 19 59 1014 vento: Nord N 16.7
12 Agosto 2022 03:20 tempo osservato: Poco Nuvoloso Poco Nuvoloso 18 63 1014 vento: Nord N 16.7
12 Agosto 2022 02:50 tempo osservato: Sereno Sereno 18 63 1014 vento: Nord N 11.1
12 Agosto 2022 02:20 tempo osservato: Sereno Sereno 19 59 1014 vento: Nord N 13
12 Agosto 2022 01:50 tempo osservato: Sereno Sereno 19 59 1014 vento: Nord N/NE 13
12 Agosto 2022 01:20 tempo osservato: Sereno Sereno 19 59 1015 vento: Nord N 14.8
12 Agosto 2022 00:50 tempo osservato: Sereno Sereno 21 49 1015 vento: Nord N 16.7
12 Agosto 2022 00:20 tempo osservato: Sereno Sereno 22 46 1015 vento: Nord N 14.8
11 Agosto 2022 23:50 tempo osservato: Sereno Sereno 22 46 1015 vento: Nord N/NO 13
11 Agosto 2022 23:20 tempo osservato: Sereno Sereno 22 46 1015 vento: Nord N/NO 9.3
11 Agosto 2022 22:50 tempo osservato: Sereno Sereno 23 43 1015 vento: Nord N/NE 14.8
11 Agosto 2022 22:20 tempo osservato: Sereno Sereno 24 41 1015 vento: Nord NE 16.7
11 Agosto 2022 21:50 tempo osservato: Sereno Sereno 24 41 1015 vento: Nord NE 16.7
11 Agosto 2022 21:20 tempo osservato: Sereno Sereno 25 41 1014 vento: Nord N/NE 14.8
11 Agosto 2022 20:50 tempo osservato: Sereno Sereno 25 41 1014 vento: Nord N/NE 14.8
11 Agosto 2022 20:20 tempo osservato: Sereno Sereno 26 41 1014 vento: Nord N/NE 16.7
11 Agosto 2022 19:50 tempo osservato: Sereno Sereno 27 36 1014 vento: Nord NE 22.2
11 Agosto 2022 19:20 tempo osservato: Sereno Sereno 28 34 1014 vento: Nord NE 24
11 Agosto 2022 18:50 tempo osservato: Sereno Sereno 29 30 1013 vento: Nord N/NE 22.2
11 Agosto 2022 18:20 tempo osservato: Sereno Sereno 30 28 1013 vento: Nord N/NE 20.3
11 Agosto 2022 17:50 tempo osservato: Sereno Sereno 30 28 1014 vento: Nord N/NE 18.5
11 Agosto 2022 17:20 tempo osservato: Sereno Sereno 30 28 1014 vento: Nord N/NE 24
11 Agosto 2022 16:50 tempo osservato: Sereno Sereno 31 27 1014 vento: Nord NE 18.5
11 Agosto 2022 15:50 tempo osservato: Sereno Sereno 31 27 1014 vento: Nord NE 24
11 Agosto 2022 14:50 tempo osservato: Poco Nuvoloso Poco Nuvoloso 30 30 1015 vento: Nord NE 16.7
11 Agosto 2022 14:20 tempo osservato: Nuvoloso Nuvoloso 30 33 1015 vento: Nord NE 22.2
11 Agosto 2022 13:50 tempo osservato: Nuvoloso Nuvoloso 30 33 1015 vento: Nord E/NE 20.3
11 Agosto 2022 13:20 tempo osservato: Poco Nuvoloso Poco Nuvoloso 29 35 1015 vento: Nord N/NE 22.2
11 Agosto 2022 12:50 tempo osservato: Poco Nuvoloso Poco Nuvoloso 29 37 1016 vento: Nord NE 22.2
11 Agosto 2022 12:20 tempo osservato: Sereno Sereno 29 35 1016 vento: Nord N/NE 22.2
11 Agosto 2022 11:50 tempo osservato: Sereno Sereno 29 37 1016 vento: Nord NE 18.5
11 Agosto 2022 11:20 tempo osservato: Sereno Sereno 28 37 1016 vento: Nord N/NE 24
11 Agosto 2022 10:50 tempo osservato: Sereno Sereno 27 39 1016 vento: Nord NE 25.9
11 Agosto 2022 10:20 tempo osservato: Sereno Sereno 27 39 1016 vento: Nord NE 24
11 Agosto 2022 09:50 tempo osservato: Sereno Sereno 27 44 1016 vento: Nord N/NE 18.5
11 Agosto 2022 09:20 tempo osservato: Sereno Sereno 26 47 1017 vento: Nord N/NE 18.5
11 Agosto 2022 08:50 tempo osservato: Sereno Sereno 25 50 1017 vento: Nord NE 20.3
11 Agosto 2022 08:20 tempo osservato: Sereno Sereno 24 57 1017 vento: Nord N 14.8
11 Agosto 2022 07:50 tempo osservato: Sereno Sereno 23 64 1017 vento: Nord N 13
11 Agosto 2022 07:20 tempo osservato: Sereno Sereno 21 73 1017 vento: Nord N/NE 9.3
11 Agosto 2022 06:50 tempo osservato: Sereno Sereno 20 77 1017 vento: Nord N/NE 11.1
11 Agosto 2022 06:20 tempo osservato: Sereno Sereno 19 82 1016 vento: Nord N 14.8
11 Agosto 2022 05:50 tempo osservato: Sereno Sereno 20 77 1016 vento: Nord N 14.8